Time;durP1;ratioP1;P1;durP2;ratioP2;P2;SDS_P1;SDS_P2;PMS_P1;PMS_P2;Temp;Humidity;BMP_temperature;BMP_pressure;BME280_temperature;BME280_humidity;BME280_pressure;Samples;Min_cycle;Max_cycle;Signal;HPM_P1;HPM_P2
2023/06/21 00:02:08;;;;;;;13.97;7.80;;;;;;;;;;5055879;28;20460;-73
2023/06/21 00:04:36;;;;;;;16.50;8.30;;;;;;;;;;5055567;28;20499;-73
2023/06/21 00:07:04;;;;;;;16.60;9.03;;;;;;;;;;5055440;28;20584;-73
2023/06/21 00:09:31;;;;;;;16.20;8.57;;;;;;;;;;5055153;28;20479;-74
2023/06/21 00:11:59;;;;;;;19.57;10.00;;;;;;;;;;5055517;28;20457;-74
2023/06/21 00:14:26;;;;;;;19.13;9.23;;;;;;;;;;5055352;28;20460;-74
2023/06/21 00:16:53;;;;;;;14.40;7.90;;;;;;;;;;5055198;28;20453;-73
2023/06/21 00:19:21;;;;;;;21.20;8.83;;;;;;;;;;5054978;28;20461;-73
2023/06/21 00:21:48;;;;;;;19.10;9.23;;;;;;;;;;5055242;28;20453;-73
2023/06/21 00:24:15;;;;;;;14.03;9.03;;;;;;;;;;5054987;28;20456;-73
2023/06/21 00:26:42;;;;;;;16.73;9.80;;;;;;;;;;5055143;28;20588;-73
2023/06/21 00:29:11;;;;;;;16.30;9.50;;;;;;;;;;5055176;28;20456;-73
2023/06/21 00:31:38;;;;;;;10.80;8.53;;;;;;;;;;5055075;28;20820;-73
2023/06/21 00:34:05;;;;;;;14.30;8.20;;;;;;;;;;5055119;28;20445;-73
2023/06/21 00:36:32;;;;;;;22.20;10.27;;;;;;;;;;5054834;28;20447;-73
2023/06/21 00:38:59;;;;;;;12.63;9.80;;;;;;;;;;5054977;28;20457;-73
2023/06/21 00:41:26;;;;;;;16.47;10.10;;;;;;;;;;5054799;28;20500;-73
2023/06/21 00:43:53;;;;;;;18.77;10.67;;;;;;;;;;5054909;28;20457;-73
2023/06/21 00:46:22;;;;;;;18.83;11.60;;;;;;;;;;5054988;28;20483;-73
2023/06/21 00:48:49;;;;;;;20.27;11.67;;;;;;;;;;5054933;28;20453;-73
2023/06/21 00:51:16;;;;;;;17.03;10.97;;;;;;;;;;5054562;28;20543;-74
2023/06/21 00:53:45;;;;;;;14.57;9.87;;;;;;;;;;5054824;28;20452;-73
2023/06/21 00:56:12;;;;;;;14.57;10.50;;;;;;;;;;5054531;28;20449;-74
2023/06/21 00:58:39;;;;;;;11.00;9.90;;;;;;;;;;5054388;28;20459;-73
2023/06/21 01:01:07;;;;;;;10.50;9.40;;;;;;;;;;5053964;28;20473;-73
2023/06/21 01:03:35;;;;;;;13.87;10.20;;;;;;;;;;5054609;28;20457;-73
2023/06/21 01:06:06;;;;;;;13.60;9.47;;;;;;;;;;5054147;28;20484;-73
2023/06/21 01:08:37;;;;;;;17.40;9.10;;;;;;;;;;5054276;28;20449;-73
2023/06/21 01:11:08;;;;;;;17.80;9.50;;;;;;;;;;5054356;28;20837;-73
2023/06/21 01:13:40;;;;;;;15.80;9.87;;;;;;;;;;5054650;28;20809;-73
2023/06/21 01:16:11;;;;;;;15.60;9.40;;;;;;;;;;5054254;28;20941;-73
2023/06/21 01:18:40;;;;;;;15.33;10.33;;;;;;;;;;5054042;28;20449;-73
2023/06/21 01:21:09;;;;;;;11.43;8.27;;;;;;;;;;5053986;28;20476;-73
2023/06/21 01:23:50;;;;;;;19.53;9.57;;;;;;;;;;5054064;28;20957;-73
2023/06/21 01:26:36;;;;;;;12.67;9.70;;;;;;;;;;5053896;28;20578;-73
2023/06/21 01:29:11;;;;;;;14.70;8.70;;;;;;;;;;5053764;28;20444;-73
2023/06/21 01:31:40;;;;;;;13.30;9.60;;;;;;;;;;5053817;28;20488;-73
2023/06/21 01:34:09;;;;;;;12.23;10.93;;;;;;;;;;5053834;28;20453;-73
2023/06/21 01:36:36;;;;;;;15.47;10.77;;;;;;;;;;5053763;28;20445;-73
2023/06/21 01:39:05;;;;;;;14.77;11.20;;;;;;;;;;5053705;28;20448;-73
2023/06/21 01:41:32;;;;;;;19.73;11.47;;;;;;;;;;5053887;28;20460;-73
2023/06/21 01:43:59;;;;;;;17.97;12.73;;;;;;;;;;5053710;28;20457;-73
2023/06/21 01:46:28;;;;;;;13.70;12.30;;;;;;;;;;5053409;28;20481;-73
2023/06/21 01:48:55;;;;;;;15.90;11.10;;;;;;;;;;5053493;28;20467;-73
2023/06/21 01:51:23;;;;;;;16.53;11.57;;;;;;;;;;5053517;28;20476;-73
2023/06/21 01:54:09;;;;;;;14.47;10.50;;;;;;;;;;5053297;28;20545;-73
2023/06/21 01:56:38;;;;;;;16.00;11.03;;;;;;;;;;5053621;28;20452;-73
2023/06/21 01:59:05;;;;;;;15.73;12.53;;;;;;;;;;5053365;28;20452;-73
2023/06/21 02:01:34;;;;;;;18.90;11.67;;;;;;;;;;5053292;28;20457;-73
2023/06/21 02:04:02;;;;;;;14.23;9.77;;;;;;;;;;5053390;28;20942;-73
2023/06/21 02:06:29;;;;;;;13.67;10.93;;;;;;;;;;5053217;28;20488;-73
2023/06/21 02:08:59;;;;;;;12.93;10.70;;;;;;;;;;5053172;28;20456;-73
2023/06/21 02:11:26;;;;;;;17.13;10.73;;;;;;;;;;5052553;28;20555;-73
2023/06/21 02:13:53;;;;;;;17.27;11.90;;;;;;;;;;5053180;28;20460;-73
2023/06/21 02:16:25;;;;;;;13.83;11.20;;;;;;;;;;5053267;28;20855;-73
2023/06/21 02:18:53;;;;;;;17.37;12.20;;;;;;;;;;5053081;28;20456;-73
2023/06/21 02:21:21;;;;;;;15.90;10.10;;;;;;;;;;5053151;28;20841;-73
2023/06/21 02:23:48;;;;;;;15.00;10.70;;;;;;;;;;5053052;28;20849;-73
2023/06/21 02:26:15;;;;;;;17.13;10.53;;;;;;;;;;5053025;28;20516;-73
2023/06/21 02:28:42;;;;;;;18.60;10.57;;;;;;;;;;5053145;28;20464;-73
2023/06/21 02:31:09;;;;;;;19.80;11.07;;;;;;;;;;5052839;28;20483;-73
2023/06/21 02:33:36;;;;;;;16.30;10.50;;;;;;;;;;5053017;28;20448;-73
2023/06/21 02:36:05;;;;;;;25.07;13.57;;;;;;;;;;5053092;28;20448;-73
2023/06/21 02:38:32;;;;;;;17.80;11.30;;;;;;;;;;5052686;28;21027;-73
2023/06/21 02:40:59;;;;;;;17.13;11.90;;;;;;;;;;5052896;28;20483;-73
2023/06/21 02:43:26;;;;;;;20.43;11.33;;;;;;;;;;5052771;28;20451;-73
2023/06/21 02:45:54;;;;;;;16.87;12.43;;;;;;;;;;5052682;28;20457;-73
2023/06/21 02:48:21;;;;;;;13.73;12.13;;;;;;;;;;5052850;28;20860;-73
2023/06/21 02:50:48;;;;;;;16.30;12.33;;;;;;;;;;5052750;28;20477;-73
2023/06/21 02:53:17;;;;;;;18.17;12.77;;;;;;;;;;5052602;28;20460;-73
2023/06/21 02:55:44;;;;;;;17.47;12.50;;;;;;;;;;5052718;28;20453;-73
2023/06/21 02:58:11;;;;;;;16.57;12.37;;;;;;;;;;5052670;28;20449;-73
2023/06/21 03:00:40;;;;;;;18.13;13.83;;;;;;;;;;5052608;28;20477;-73
2023/06/21 03:03:07;;;;;;;18.47;14.23;;;;;;;;;;5052915;28;20487;-73
2023/06/21 03:05:37;;;;;;;19.37;13.43;;;;;;;;;;5052587;28;20479;-73
2023/06/21 03:08:04;;;;;;;20.70;13.00;;;;;;;;;;5052875;28;20575;-73
2023/06/21 03:10:33;;;;;;;18.03;12.53;;;;;;;;;;5052573;28;20476;-73
2023/06/21 03:13:00;;;;;;;16.73;13.20;;;;;;;;;;5053315;28;20453;-73
2023/06/21 03:15:28;;;;;;;25.23;13.80;;;;;;;;;;5052500;28;20928;-73
2023/06/21 03:17:55;;;;;;;16.90;12.17;;;;;;;;;;5052525;28;20476;-73
2023/06/21 03:20:24;;;;;;;17.17;13.17;;;;;;;;;;5051505;28;20472;-73
2023/06/21 03:22:51;;;;;;;17.83;13.00;;;;;;;;;;5052309;28;20510;-73
2023/06/21 03:25:19;;;;;;;11.90;10.70;;;;;;;;;;5055436;28;20452;-73
2023/06/21 03:27:48;;;;;;;18.50;11.70;;;;;;;;;;5055582;28;20843;-73
2023/06/21 03:30:15;;;;;;;19.70;12.40;;;;;;;;;;5055420;28;20509;-73
2023/06/21 03:32:46;;;;;;;16.03;12.47;;;;;;;;;;5055404;28;20445;-73
2023/06/21 03:35:14;;;;;;;18.27;12.87;;;;;;;;;;5055430;28;20452;-73
2023/06/21 03:37:41;;;;;;;17.43;12.70;;;;;;;;;;5055244;28;20488;-73
2023/06/21 03:40:11;;;;;;;15.60;11.80;;;;;;;;;;5054962;28;20472;-73
2023/06/21 03:42:38;;;;;;;18.70;13.80;;;;;;;;;;5055512;28;20437;-73
2023/06/21 03:45:08;;;;;;;15.80;13.03;;;;;;;;;;5055014;28;20459;-73
2023/06/21 03:47:36;;;;;;;15.43;13.10;;;;;;;;;;5055155;28;20924;-73
2023/06/21 03:50:03;;;;;;;16.50;13.70;;;;;;;;;;5055057;28;20977;-73
2023/06/21 03:52:30;;;;;;;23.97;13.73;;;;;;;;;;5055021;28;20456;-73
2023/06/21 03:54:57;;;;;;;16.90;12.23;;;;;;;;;;5054998;28;20456;-73
2023/06/21 03:57:24;;;;;;;19.33;12.67;;;;;;;;;;5054970;28;20496;-73
2023/06/21 03:59:52;;;;;;;15.00;13.50;;;;;;;;;;5054576;28;20469;-73
2023/06/21 04:02:21;;;;;;;14.70;13.20;;;;;;;;;;5054750;28;20460;-73
2023/06/21 04:04:48;;;;;;;14.90;12.33;;;;;;;;;;5054999;28;20959;-73
2023/06/21 04:07:17;;;;;;;25.43;13.67;;;;;;;;;;5054544;28;20487;-73
2023/06/21 04:09:44;;;;;;;24.00;15.50;;;;;;;;;;5054487;28;20844;-73
2023/06/21 04:12:12;;;;;;;18.90;13.17;;;;;;;;;;5054899;28;21007;-73
2023/06/21 04:14:39;;;;;;;15.73;12.83;;;;;;;;;;5054489;28;20468;-73
2023/06/21 04:17:06;;;;;;;18.17;13.10;;;;;;;;;;5054633;28;20448;-73
2023/06/21 04:19:35;;;;;;;19.37;14.50;;;;;;;;;;5054646;28;20484;-73
2023/06/21 04:22:02;;;;;;;30.73;15.37;;;;;;;;;;5054962;28;20445;-73
2023/06/21 04:24:29;;;;;;;18.43;14.80;;;;;;;;;;5054939;28;20444;-73
2023/06/21 04:26:58;;;;;;;17.93;14.43;;;;;;;;;;5054413;28;20487;-73
2023/06/21 04:29:25;;;;;;;20.70;14.00;;;;;;;;;;5054213;28;20990;-73
2023/06/21 04:31:53;;;;;;;20.17;14.03;;;;;;;;;;5054219;28;20484;-73
2023/06/21 04:34:20;;;;;;;20.10;14.63;;;;;;;;;;5053586;28;20831;-73
2023/06/21 04:36:49;;;;;;;23.20;15.47;;;;;;;;;;5054046;28;20456;-73
2023/06/21 04:39:17;;;;;;;23.90;15.27;;;;;;;;;;5054190;28;20457;-73
2023/06/21 04:41:46;;;;;;;17.50;14.50;;;;;;;;;;5054344;28;20463;-73
2023/06/21 04:44:13;;;;;;;24.93;14.80;;;;;;;;;;5054010;28;20906;-73
2023/06/21 04:46:40;;;;;;;25.03;16.37;;;;;;;;;;5053974;28;20953;-73
2023/06/21 04:49:07;;;;;;;15.57;13.90;;;;;;;;;;5053782;28;20468;-73
2023/06/21 04:51:34;;;;;;;21.07;14.67;;;;;;;;;;5054511;28;20449;-73
2023/06/21 04:54:03;;;;;;;21.50;13.90;;;;;;;;;;5053610;28;20440;-73
2023/06/21 04:56:30;;;;;;;21.17;14.50;;;;;;;;;;5053817;28;20448;-73
2023/06/21 04:58:57;;;;;;;15.53;12.80;;;;;;;;;;5054187;28;20471;-73
2023/06/21 05:01:24;;;;;;;21.60;13.83;;;;;;;;;;5053817;28;20465;-73
2023/06/21 05:03:52;;;;;;;18.50;12.80;;;;;;;;;;5053768;28;20445;-73
2023/06/21 05:06:22;;;;;;;14.07;12.53;;;;;;;;;;5053745;28;20979;-73
2023/06/21 05:08:49;;;;;;;16.00;13.33;;;;;;;;;;5053776;28;20500;-73
2023/06/21 05:11:17;;;;;;;15.27;12.90;;;;;;;;;;5053422;28;20488;-73
2023/06/21 05:13:44;;;;;;;15.13;12.20;;;;;;;;;;5053944;28;20461;-73
2023/06/21 05:16:12;;;;;;;16.57;11.70;;;;;;;;;;5053759;28;20844;-73
2023/06/21 05:18:39;;;;;;;16.63;12.37;;;;;;;;;;5053305;28;20444;-73
2023/06/21 05:21:06;;;;;;;13.77;11.97;;;;;;;;;;5053357;28;20472;-73
2023/06/21 05:23:34;;;;;;;14.17;11.90;;;;;;;;;;5053469;28;20916;-73
2023/06/21 05:26:01;;;;;;;20.93;12.30;;;;;;;;;;5053247;28;20457;-73
2023/06/21 05:28:30;;;;;;;17.73;11.53;;;;;;;;;;5052968;28;20849;-73
2023/06/21 05:30:57;;;;;;;16.70;11.40;;;;;;;;;;5052954;28;20468;-73
2023/06/21 05:33:24;;;;;;;14.57;10.97;;;;;;;;;;5053251;28;20452;-73
2023/06/21 05:35:51;;;;;;;23.50;10.97;;;;;;;;;;5053662;28;20953;-73
2023/06/21 05:38:18;;;;;;;27.63;12.53;;;;;;;;;;5052987;28;20453;-73
2023/06/21 05:40:45;;;;;;;14.07;11.37;;;;;;;;;;5053396;28;20861;-73
2023/06/21 05:43:12;;;;;;;16.60;11.13;;;;;;;;;;5052875;28;20444;-73
2023/06/21 05:45:41;;;;;;;13.97;11.13;;;;;;;;;;5052962;28;20461;-74
2023/06/21 05:48:08;;;;;;;12.73;9.80;;;;;;;;;;5052341;28;20858;-74
2023/06/21 05:50:35;;;;;;;17.00;11.20;;;;;;;;;;5053078;28;20485;-73
2023/06/21 05:53:02;;;;;;;17.13;11.90;;;;;;;;;;5052904;28;20460;-73
2023/06/21 05:55:29;;;;;;;16.60;11.30;;;;;;;;;;5053038;28;20440;-73
2023/06/21 05:57:56;;;;;;;19.57;11.53;;;;;;;;;;5053394;28;20452;-73
2023/06/21 06:00:24;;;;;;;17.77;11.77;;;;;;;;;;5052581;28;20472;-73
2023/06/21 06:02:52;;;;;;;14.53;10.60;;;;;;;;;;5052584;28;20464;-73
2023/06/21 06:05:19;;;;;;;10.67;9.63;;;;;;;;;;5052893;28;20810;-73
2023/06/21 06:07:47;;;;;;;14.00;10.30;;;;;;;;;;5052864;28;20492;-73
2023/06/21 06:10:14;;;;;;;13.00;10.47;;;;;;;;;;5052584;28;20575;-73
2023/06/21 06:12:41;;;;;;;11.93;8.87;;;;;;;;;;5052784;28;20949;-73
2023/06/21 06:15:09;;;;;;;11.40;9.63;;;;;;;;;;5052478;28;20459;-73
2023/06/21 06:17:36;;;;;;;14.03;9.70;;;;;;;;;;5052629;28;20444;-73
2023/06/21 06:20:05;;;;;;;19.73;12.87;;;;;;;;;;5049886;28;20530;-73
2023/06/21 06:22:33;;;;;;;10.80;9.70;;;;;;;;;;5051524;28;20554;-73
2023/06/21 06:25:00;;;;;;;10.37;9.33;;;;;;;;;;5051442;28;20479;-74
2023/06/21 06:27:28;;;;;;;14.00;8.97;;;;;;;;;;5051063;28;20490;-74
2023/06/21 06:29:55;;;;;;;13.00;9.37;;;;;;;;;;5050916;28;20705;-74
2023/06/21 06:32:23;;;;;;;11.03;8.50;;;;;;;;;;5051228;28;20527;-74
2023/06/21 06:34:50;;;;;;;13.70;8.93;;;;;;;;;;5051324;28;21014;-74
2023/06/21 06:37:18;;;;;;;12.87;11.47;;;;;;;;;;5050996;28;20455;-74
2023/06/21 06:39:45;;;;;;;21.00;10.07;;;;;;;;;;5051159;28;20482;-74
2023/06/21 06:42:12;;;;;;;15.93;9.10;;;;;;;;;;5051190;28;20448;-74
2023/06/21 06:44:39;;;;;;;9.67;8.67;;;;;;;;;;5050856;28;20463;-74
2023/06/21 06:47:07;;;;;;;9.47;8.03;;;;;;;;;;5050978;28;20452;-74
2023/06/21 06:49:34;;;;;;;11.13;10.00;;;;;;;;;;5050819;28;20511;-74
2023/06/21 06:52:01;;;;;;;11.13;10.07;;;;;;;;;;5051010;28;20490;-74
2023/06/21 06:54:30;;;;;;;10.73;9.67;;;;;;;;;;5051369;28;20237;-74
2023/06/21 06:56:57;;;;;;;12.30;9.77;;;;;;;;;;5050860;28;20470;-74
2023/06/21 06:59:24;;;;;;;11.30;9.67;;;;;;;;;;5054318;28;20206;-74
2023/06/21 07:01:51;;;;;;;14.67;12.30;;;;;;;;;;5055338;28;20209;-74
2023/06/21 07:04:18;;;;;;;12.40;11.07;;;;;;;;;;5054799;28;20456;-74
2023/06/21 07:06:45;;;;;;;14.80;11.00;;;;;;;;;;5054761;28;20303;-74
2023/06/21 07:09:13;;;;;;;12.23;10.13;;;;;;;;;;5055057;28;20566;-74
2023/06/21 07:11:41;;;;;;;13.37;11.10;;;;;;;;;;5054619;28;20209;-74
2023/06/21 07:14:08;;;;;;;13.40;10.60;;;;;;;;;;5054801;28;20671;-74
2023/06/21 07:16:36;;;;;;;10.57;9.57;;;;;;;;;;5054899;28;20209;-74
2023/06/21 07:19:03;;;;;;;11.83;9.50;;;;;;;;;;5054666;28;20233;-74
2023/06/21 07:21:30;;;;;;;11.30;10.23;;;;;;;;;;5054784;28;20347;-74
2023/06/21 07:23:58;;;;;;;19.23;10.10;;;;;;;;;;5054476;28;20205;-74
2023/06/21 07:26:25;;;;;;;11.80;10.60;;;;;;;;;;5054405;28;20217;-74
2023/06/21 07:28:53;;;;;;;12.57;10.70;;;;;;;;;;5054316;28;20229;-74
2023/06/21 07:31:20;;;;;;;21.07;11.53;;;;;;;;;;5054251;28;20232;-74
2023/06/21 07:33:49;;;;;;;15.37;13.87;;;;;;;;;;5054177;28;20218;-74
2023/06/21 07:36:16;;;;;;;17.20;14.97;;;;;;;;;;5054481;28;20213;-74
2023/06/21 07:38:46;;;;;;;14.17;12.67;;;;;;;;;;5054109;28;20209;-74
2023/06/21 07:41:14;;;;;;;16.93;12.20;;;;;;;;;;5054510;28;20643;-74
2023/06/21 07:43:41;;;;;;;11.90;10.70;;;;;;;;;;5054286;28;20233;-74
2023/06/21 07:46:09;;;;;;;16.60;13.10;;;;;;;;;;5053777;28;20229;-74
2023/06/21 07:48:36;;;;;;;17.40;13.13;;;;;;;;;;5054106;28;20606;-74
2023/06/21 07:51:03;;;;;;;11.70;10.70;;;;;;;;;;5053696;28;20616;-74
2023/06/21 07:53:31;;;;;;;13.40;11.85;;;;;;;;;;5053786;28;20216;-74
2023/06/21 07:56:00;;;;;;;13.07;10.60;;;;;;;;;;5053438;28;20239;-74
2023/06/21 07:58:27;;;;;;;14.87;12.07;;;;;;;;;;5053928;28;20600;-74
2023/06/21 08:00:54;;;;;;;14.67;11.03;;;;;;;;;;5053489;28;20235;-74
2023/06/21 08:03:22;;;;;;;16.50;12.70;;;;;;;;;;5054219;28;20194;-74
2023/06/21 08:05:49;;;;;;;14.70;11.70;;;;;;;;;;5053531;28;20243;-74
2023/06/21 08:08:17;;;;;;;10.27;9.30;;;;;;;;;;5052968;28;20225;-74
2023/06/21 08:10:44;;;;;;;10.63;9.50;;;;;;;;;;5052619;28;20306;-74
2023/06/21 08:13:11;;;;;;;15.97;12.40;;;;;;;;;;5053524;28;20214;-74
2023/06/21 08:15:39;;;;;;;12.57;11.37;;;;;;;;;;5053645;28;20220;-74
2023/06/21 08:18:07;;;;;;;11.93;10.83;;;;;;;;;;5053369;28;20212;-74
2023/06/21 08:20:35;;;;;;;11.30;10.20;;;;;;;;;;5053865;28;20320;-74
2023/06/21 08:23:03;;;;;;;13.93;10.43;;;;;;;;;;5054838;28;20220;-74
2023/06/21 08:25:30;;;;;;;11.53;10.47;;;;;;;;;;5054666;28;20451;-74
2023/06/21 08:27:57;;;;;;;13.53;10.17;;;;;;;;;;5054197;28;20452;-74
2023/06/21 08:30:24;;;;;;;11.47;8.60;;;;;;;;;;5054157;28;20988;-74
2023/06/21 08:32:51;;;;;;;14.30;10.33;;;;;;;;;;5054638;28;20210;-75
2023/06/21 08:35:18;;;;;;;12.53;11.23;;;;;;;;;;5054411;28;20608;-74
2023/06/21 08:37:56;;;;;;;11.17;9.97;;;;;;;;;;5054577;28;20237;-74
2023/06/21 08:40:25;;;;;;;12.77;10.60;;;;;;;;;;5054480;28;20705;-74
2023/06/21 08:42:52;;;;;;;16.33;9.60;;;;;;;;;;5054508;28;20663;-74
2023/06/21 08:45:19;;;;;;;10.70;9.60;;;;;;;;;;5054269;28;20213;-74
2023/06/21 08:47:47;;;;;;;11.30;9.77;;;;;;;;;;5054254;28;20221;-74
2023/06/21 08:50:16;;;;;;;12.20;9.23;;;;;;;;;;5054376;28;20542;-74
2023/06/21 08:52:45;;;;;;;15.10;9.60;;;;;;;;;;5053860;28;20482;-74
2023/06/21 08:55:15;;;;;;;13.10;10.40;;;;;;;;;;5054343;28;20514;-74
2023/06/21 08:57:46;;;;;;;15.20;8.47;;;;;;;;;;5054474;28;20979;-74
2023/06/21 09:00:14;;;;;;;10.90;7.73;;;;;;;;;;5053831;28;20498;-75
2023/06/21 09:02:44;;;;;;;8.10;7.20;;;;;;;;;;5054058;28;20231;-75
2023/06/21 09:05:14;;;;;;;9.23;8.27;;;;;;;;;;5053703;28;20663;-75
2023/06/21 09:07:42;;;;;;;9.70;8.60;;;;;;;;;;5054155;28;20810;-74
2023/06/21 09:10:10;;;;;;;14.03;9.10;;;;;;;;;;5053616;28;20527;-74
2023/06/21 09:12:39;;;;;;;9.10;8.13;;;;;;;;;;5053644;28;20487;-74
2023/06/21 09:15:07;;;;;;;9.70;8.20;;;;;;;;;;5053835;28;20820;-74
2023/06/21 09:17:35;;;;;;;8.67;7.87;;;;;;;;;;5053838;28;20551;-74
2023/06/21 09:20:02;;;;;;;17.00;8.63;;;;;;;;;;5053373;28;20468;-77
2023/06/21 09:22:31;;;;;;;11.23;7.53;;;;;;;;;;5052859;28;20462;-78
2023/06/21 09:24:58;;;;;;;8.57;7.30;;;;;;;;;;5053262;28;20463;-77
2023/06/21 09:27:26;;;;;;;9.90;7.33;;;;;;;;;;5051912;28;20472;-78
2023/06/21 09:29:55;;;;;;;9.97;8.33;;;;;;;;;;5052733;28;20578;-77
2023/06/21 09:32:22;;;;;;;7.50;6.77;;;;;;;;;;5037638;28;20469;-77
2023/06/21 09:34:49;;;;;;;10.80;6.73;;;;;;;;;;5051843;28;20839;-77
2023/06/21 09:37:31;;;;;;;11.50;7.73;;;;;;;;;;5050987;28;20835;-77
2023/06/21 09:39:58;;;;;;;16.70;7.37;;;;;;;;;;5051527;28;20483;-77
2023/06/21 09:42:26;;;;;;;7.53;6.83;;;;;;;;;;5051553;28;20452;-77
2023/06/21 09:44:55;;;;;;;8.93;7.83;;;;;;;;;;5051484;28;20495;-77
2023/06/21 09:47:22;;;;;;;9.13;7.07;;;;;;;;;;5052653;28;20444;-77
2023/06/21 09:49:49;;;;;;;9.37;8.47;;;;;;;;;;5052280;28;20499;-77
2023/06/21 09:52:18;;;;;;;9.03;6.83;;;;;;;;;;5052302;28;20460;-77
2023/06/21 09:54:45;;;;;;;11.00;7.70;;;;;;;;;;5052637;28;20514;-77
2023/06/21 09:57:12;;;;;;;10.97;7.63;;;;;;;;;;5052352;28;20547;-77
2023/06/21 09:59:40;;;;;;;10.53;7.37;;;;;;;;;;5038114;28;20489;-77
2023/06/21 10:02:09;;;;;;;10.53;7.83;;;;;;;;;;5032744;28;20441;-77
2023/06/21 10:04:40;;;;;;;7.80;6.97;;;;;;;;;;5032657;28;20457;-77
2023/06/21 10:07:07;;;;;;;11.13;7.37;;;;;;;;;;5032639;28;20455;-77
2023/06/21 10:09:37;;;;;;;8.80;7.53;;;;;;;;;;5032207;28;20503;-77
2023/06/21 10:12:04;;;;;;;6.97;6.17;;;;;;;;;;5032628;28;20453;-77
2023/06/21 10:14:32;;;;;;;10.47;7.10;;;;;;;;;;5032156;28;20462;-77
2023/06/21 10:16:59;;;;;;;13.53;7.40;;;;;;;;;;5032518;28;20556;-77
2023/06/21 10:19:30;;;;;;;10.40;5.93;;;;;;;;;;5032203;28;20973;-77
2023/06/21 10:22:01;;;;;;;9.57;7.00;;;;;;;;;;5032556;28;20449;-77
2023/06/21 10:24:31;;;;;;;9.07;7.20;;;;;;;;;;5032386;28;20489;-77
2023/06/21 10:26:58;;;;;;;11.40;7.10;;;;;;;;;;5032244;28;20879;-77
2023/06/21 10:29:25;;;;;;;10.90;5.90;;;;;;;;;;5040579;28;20487;-77
2023/06/21 10:31:54;;;;;;;8.63;6.63;;;;;;;;;;5050669;28;20503;-77
2023/06/21 10:34:23;;;;;;;11.10;7.33;;;;;;;;;;5049954;28;20503;-78
2023/06/21 10:36:52;;;;;;;7.87;6.60;;;;;;;;;;5050729;28;20458;-77
2023/06/21 10:39:21;;;;;;;7.73;6.20;;;;;;;;;;5050412;28;20448;-77
2023/06/21 10:41:49;;;;;;;8.00;7.03;;;;;;;;;;5050892;28;20217;-78
2023/06/21 10:44:18;;;;;;;8.53;6.33;;;;;;;;;;5050457;28;20464;-77
2023/06/21 10:46:45;;;;;;;8.70;6.80;;;;;;;;;;5050971;28;20460;-77
2023/06/21 10:49:13;;;;;;;9.37;5.97;;;;;;;;;;5050207;28;21028;-77
2023/06/21 10:51:41;;;;;;;7.80;5.97;;;;;;;;;;5050661;28;20830;-77
2023/06/21 10:54:11;;;;;;;8.43;6.93;;;;;;;;;;5050195;28;20559;-77
2023/06/21 10:56:39;;;;;;;7.50;6.77;;;;;;;;;;5050607;28;21010;-77
2023/06/21 10:59:06;;;;;;;13.13;6.17;;;;;;;;;;5050109;28;20463;-77
2023/06/21 11:01:33;;;;;;;12.40;6.70;;;;;;;;;;5050801;28;20833;-77
2023/06/21 11:04:01;;;;;;;7.23;6.43;;;;;;;;;;5050562;28;20513;-77
2023/06/21 11:06:29;;;;;;;6.67;6.07;;;;;;;;;;5050368;28;20492;-77
2023/06/21 11:08:57;;;;;;;8.90;6.80;;;;;;;;;;5050092;28;20545;-77
2023/06/21 11:11:32;;;;;;;11.30;6.77;;;;;;;;;;5050539;28;20823;-77
2023/06/21 11:14:01;;;;;;;15.83;7.30;;;;;;;;;;5050174;28;20486;-76
2023/06/21 11:16:31;;;;;;;14.10;6.60;;;;;;;;;;5050214;28;20605;-77
2023/06/21 11:18:59;;;;;;;7.83;6.80;;;;;;;;;;5050139;28;20463;-77
2023/06/21 11:21:40;;;;;;;7.97;6.40;;;;;;;;;;5049943;28;20508;-77
2023/06/21 11:24:08;;;;;;;8.60;6.80;;;;;;;;;;5050279;28;20468;-77
2023/06/21 11:26:57;;;;;;;9.83;6.50;;;;;;;;;;5050658;28;20496;-77
2023/06/21 11:29:26;;;;;;;7.27;6.10;;;;;;;;;;5049906;28;20495;-77
2023/06/21 11:32:08;;;;;;;12.40;6.70;;;;;;;;;;5050201;28;20460;-77
2023/06/21 11:34:36;;;;;;;8.90;6.80;;;;;;;;;;5050926;28;20535;-77
2023/06/21 11:37:18;;;;;;;7.17;5.40;;;;;;;;;;5050684;28;20505;-77
2023/06/21 11:39:46;;;;;;;9.63;6.30;;;;;;;;;;5049994;28;20468;-77
2023/06/21 11:42:17;;;;;;;9.40;5.87;;;;;;;;;;5050188;28;20459;-77
2023/06/21 11:44:44;;;;;;;9.70;6.20;;;;;;;;;;5052456;28;20467;-77
2023/06/21 11:47:18;;;;;;;8.20;6.10;;;;;;;;;;5054040;28;20481;-77
2023/06/21 11:49:59;;;;;;;8.63;6.17;;;;;;;;;;5053624;28;20491;-77
2023/06/21 11:52:35;;;;;;;9.93;6.20;;;;;;;;;;5053807;28;20459;-77
2023/06/21 11:55:13;;;;;;;10.03;6.23;;;;;;;;;;5053776;28;20480;-77
2023/06/21 11:57:46;;;;;;;7.97;5.80;;;;;;;;;;5053957;28;20432;-77
2023/06/21 12:00:13;;;;;;;9.17;6.37;;;;;;;;;;5053272;28;20464;-77
2023/06/21 12:02:41;;;;;;;8.73;6.50;;;;;;;;;;5054051;28;20460;-77
2023/06/21 12:05:08;;;;;;;10.90;6.07;;;;;;;;;;5053742;28;20467;-77
2023/06/21 12:07:35;;;;;;;7.10;6.40;;;;;;;;;;5053407;28;20463;-77
2023/06/21 12:10:03;;;;;;;7.67;5.23;;;;;;;;;;5053268;28;20946;-77
2023/06/21 12:12:30;;;;;;;13.03;8.03;;;;;;;;;;5053397;28;20921;-77
2023/06/21 12:14:59;;;;;;;9.87;6.73;;;;;;;;;;5053289;28;20448;-77
2023/06/21 12:17:27;;;;;;;11.40;6.93;;;;;;;;;;5053306;28;20452;-77
2023/06/21 12:19:54;;;;;;;6.80;6.10;;;;;;;;;;5053062;28;20820;-77
2023/06/21 12:22:23;;;;;;;10.43;6.37;;;;;;;;;;5054134;28;21018;-77
2023/06/21 12:24:55;;;;;;;13.37;6.77;;;;;;;;;;5054249;28;20464;-77
2023/06/21 12:27:22;;;;;;;7.10;5.63;;;;;;;;;;5054580;28;20522;-77
2023/06/21 12:29:51;;;;;;;7.27;5.07;;;;;;;;;;5054245;28;20492;-77
2023/06/21 12:32:20;;;;;;;11.93;6.73;;;;;;;;;;5054372;28;20997;-77
2023/06/21 12:34:47;;;;;;;7.60;4.97;;;;;;;;;;5054254;28;20507;-76
2023/06/21 12:37:21;;;;;;;9.87;5.37;;;;;;;;;;5054176;28;20461;-76
2023/06/21 12:39:51;;;;;;;9.80;5.10;;;;;;;;;;5054003;28;20808;-76
2023/06/21 12:42:20;;;;;;;9.27;4.73;;;;;;;;;;5054189;28;20461;-75
2023/06/21 12:44:47;;;;;;;16.30;5.00;;;;;;;;;;5054119;28;20492;-75
2023/06/21 12:47:15;;;;;;;12.17;4.87;;;;;;;;;;5054110;28;20492;-76
2023/06/21 12:49:48;;;;;;;8.80;5.70;;;;;;;;;;5053835;28;20492;-75
2023/06/21 12:52:15;;;;;;;9.30;3.60;;;;;;;;;;5054529;28;20480;-77
2023/06/21 12:54:53;;;;;;;9.53;3.90;;;;;;;;;;5054932;28;20445;-78
2023/06/21 12:57:26;;;;;;;7.30;4.90;;;;;;;;;;5054375;28;20448;-78
2023/06/21 12:59:53;;;;;;;11.50;4.00;;;;;;;;;;5055772;28;20469;-79
2023/06/21 13:02:26;;;;;;;11.67;4.27;;;;;;;;;;5054900;28;20831;-78
2023/06/21 13:04:54;;;;;;;14.50;4.30;;;;;;;;;;5055147;28;20453;-78
2023/06/21 13:07:21;;;;;;;7.80;4.17;;;;;;;;;;5054814;28;20941;-78
2023/06/21 13:09:49;;;;;;;7.80;4.00;;;;;;;;;;5054517;28;20559;-78
2023/06/21 13:12:16;;;;;;;8.23;4.10;;;;;;;;;;5054314;28;20449;-79
2023/06/21 13:14:44;;;;;;;7.43;4.20;;;;;;;;;;5054760;28;20536;-78
2023/06/21 13:17:11;;;;;;;11.80;3.90;;;;;;;;;;5054749;28;20449;-79
2023/06/21 13:19:38;;;;;;;14.00;4.83;;;;;;;;;;5054237;28;20530;-78
2023/06/21 13:22:09;;;;;;;11.23;4.63;;;;;;;;;;5054013;28;21000;-78
2023/06/21 13:24:36;;;;;;;10.13;4.97;;;;;;;;;;5054249;28;20461;-78
2023/06/21 13:27:03;;;;;;;7.07;3.30;;;;;;;;;;5054803;28;20456;-78
2023/06/21 13:29:30;;;;;;;8.53;4.20;;;;;;;;;;5054444;28;20473;-78
2023/06/21 13:31:58;;;;;;;7.90;3.90;;;;;;;;;;5055187;28;20481;-78
2023/06/21 13:34:26;;;;;;;15.20;6.00;;;;;;;;;;5054480;28;20972;-78
2023/06/21 13:36:53;;;;;;;12.03;4.43;;;;;;;;;;5054002;28;21011;-76
2023/06/21 13:39:21;;;;;;;9.10;4.03;;;;;;;;;;5052676;28;20461;-76
2023/06/21 13:41:48;;;;;;;15.30;4.63;;;;;;;;;;5053057;28;20821;-76
2023/06/21 13:44:15;;;;;;;14.63;5.60;;;;;;;;;;5052842;28;20472;-76
2023/06/21 13:46:42;;;;;;;10.53;4.03;;;;;;;;;;5052857;28;20453;-76
2023/06/21 13:49:10;;;;;;;6.97;4.20;;;;;;;;;;5052604;28;20448;-76
2023/06/21 13:51:37;;;;;;;18.00;5.47;;;;;;;;;;5052007;28;21073;-76
2023/06/21 13:54:04;;;;;;;18.97;5.53;;;;;;;;;;5052705;28;20486;-76
2023/06/21 13:56:33;;;;;;;9.27;4.33;;;;;;;;;;5053004;28;20459;-76
2023/06/21 13:59:00;;;;;;;11.53;4.60;;;;;;;;;;5052483;28;20495;-76
2023/06/21 14:01:27;;;;;;;15.67;4.60;;;;;;;;;;5052387;28;20483;-76
2023/06/21 14:03:55;;;;;;;21.27;5.13;;;;;;;;;;5052595;28;20932;-76
2023/06/21 14:06:22;;;;;;;11.60;6.23;;;;;;;;;;5052558;28;20453;-76
2023/06/21 14:08:49;;;;;;;13.50;4.73;;;;;;;;;;5051363;28;20966;-76
2023/06/21 14:11:16;;;;;;;16.40;4.93;;;;;;;;;;5052350;28;20500;-76
2023/06/21 14:13:45;;;;;;;24.83;5.43;;;;;;;;;;5052503;28;20452;-76
2023/06/21 14:16:12;;;;;;;18.90;5.10;;;;;;;;;;5052419;28;20453;-76
2023/06/21 14:18:39;;;;;;;12.17;4.87;;;;;;;;;;5052168;28;20444;-76
2023/06/21 14:21:07;;;;;;;9.43;3.97;;;;;;;;;;5052183;28;20501;-76
2023/06/21 14:23:35;;;;;;;12.80;5.40;;;;;;;;;;5052248;28;20452;-77
2023/06/21 14:26:02;;;;;;;16.57;4.43;;;;;;;;;;5052299;28;20467;-78
2023/06/21 14:28:36;;;;;;;9.90;4.47;;;;;;;;;;5046235;28;20453;-78
2023/06/21 14:31:11;;;;;;;11.90;3.83;;;;;;;;;;5033298;28;20481;-75
2023/06/21 14:33:40;;;;;;;6.83;4.10;;;;;;;;;;5044231;28;20472;-75